createdAt,value
2022-11-16T00:00:23.143Z,96873.75
2022-11-16T00:03:05.975Z,96870.34
2022-11-16T00:05:37.372Z,96868.59
2022-11-16T00:08:08.619Z,96860.82
2022-11-16T00:10:37.957Z,96861.98
2022-11-16T00:13:09.674Z,96857.44
2022-11-16T00:15:40.663Z,96851.48
2022-11-16T00:18:11.556Z,96850.23
2022-11-16T00:20:42.777Z,96855.48
2022-11-16T00:23:14.110Z,96846.63
2022-11-16T00:25:45.596Z,96845.69
2022-11-16T00:28:17.227Z,96846.43
2022-11-16T00:30:48.461Z,96842.94
2022-11-16T00:33:19.544Z,96838.91
2022-11-16T00:35:51.210Z,96835.41
2022-11-16T00:38:22.218Z,96832.55
2022-11-16T00:40:53.325Z,96832.83
2022-11-16T00:43:24.658Z,96831.73
2022-11-16T00:45:55.848Z,96828.84
2022-11-16T00:48:25.472Z,96829.63
2022-11-16T00:50:56.703Z,96825.61
2022-11-16T00:53:27.922Z,96822.91
2022-11-16T00:55:57.376Z,96822.19
2022-11-16T00:58:28.483Z,96820.40
2022-11-16T01:01:04.259Z,96818.39
2022-11-16T01:03:35.718Z,96818.94
2022-11-16T01:06:05.817Z,96817.67
2022-11-16T01:08:38.445Z,96813.60
2022-11-16T01:11:28.602Z,96810.44
2022-11-16T01:14:00.422Z,96809.57
2022-11-16T01:16:31.710Z,96804.63
2022-11-16T01:19:03.580Z,96802.73
2022-11-16T01:21:34.771Z,96801.04
2022-11-16T01:24:06.344Z,96799.83
2022-11-16T01:26:37.323Z,96798.68
2022-11-16T01:29:08.209Z,96795.28
2022-11-16T01:31:39.485Z,96790.41
2022-11-16T01:34:10.937Z,96786.67
2022-11-16T01:36:42.073Z,96785.73
2022-11-16T01:39:14.384Z,96787.12
2022-11-16T01:41:46.609Z,96782.06
2022-11-16T01:44:52.062Z,96777.61
2022-11-16T01:47:23.404Z,96777.61
2022-11-16T01:49:57.359Z,96769.42
2022-11-16T01:52:32.134Z,96764.96
2022-11-16T01:55:04.002Z,96757.14
2022-11-16T01:57:38.619Z,96750.66
2022-11-16T02:00:12.893Z,96749.75
2022-11-16T02:02:44.627Z,96751.84
2022-11-16T02:05:19.026Z,96749.19
2022-11-16T02:08:28.838Z,96748.21
2022-11-16T02:11:17.242Z,96747.20
2022-11-16T02:14:01.650Z,96744.85
2022-11-16T02:16:41.632Z,96741.03
2022-11-16T02:19:51.310Z,96742.95
2022-11-16T02:22:40.679Z,96733.45
2022-11-16T02:25:18.966Z,96732.52
2022-11-16T02:28:13.176Z,96731.66
2022-11-16T02:30:48.931Z,96729.38
2022-11-16T02:33:24.140Z,96728.20
2022-11-16T02:35:58.447Z,96727.52
2022-11-16T02:38:33.235Z,96728.27
2022-11-16T02:41:09.827Z,96730.71
2022-11-16T02:43:44.503Z,96728.96
2022-11-16T02:46:21.426Z,96730.10
2022-11-16T02:48:58.414Z,96729.38
2022-11-16T02:51:31.410Z,96721.13
2022-11-16T02:54:11.653Z,96716.67
2022-11-16T02:57:13.562Z,96716.41
2022-11-16T02:59:48.102Z,96712.61
2022-11-16T03:02:25.694Z,96707.48
2022-11-16T03:05:02.554Z,96706.95
2022-11-16T03:07:41.899Z,96709.27
2022-11-16T03:10:34.883Z,96708.27
2022-11-16T03:13:11.694Z,96713.09
2022-11-16T03:15:45.331Z,96713.73
2022-11-16T03:18:18.615Z,96708.26
2022-11-16T03:20:53.875Z,96707.84
2022-11-16T03:23:25.232Z,96704.54
2022-11-16T03:25:59.351Z,96703.96
2022-11-16T03:28:36.299Z,96695.89
2022-11-16T03:31:14.438Z,96693.33
2022-11-16T03:33:49.651Z,96692.06
2022-11-16T03:36:28.759Z,96687.06
2022-11-16T03:39:02.561Z,96684.69
2022-11-16T03:41:35.291Z,96675.57
2022-11-16T03:44:08.862Z,96676.05
2022-11-16T03:46:40.329Z,96669.19
2022-11-16T03:49:11.240Z,96669.13
2022-11-16T03:51:42.344Z,96665.54
2022-11-16T03:54:13.611Z,96664.79
2022-11-16T03:56:44.520Z,96663.20
2022-11-16T03:59:15.999Z,96664.19
2022-11-16T04:01:47.253Z,96666.20
2022-11-16T04:04:32.005Z,96664.95
2022-11-16T04:07:20.153Z,96666.72
2022-11-16T04:10:08.466Z,96666.03
2022-11-16T04:12:57.674Z,96659.35
2022-11-16T04:15:46.581Z,96657.94
2022-11-16T04:18:35.171Z,96656.64
2022-11-16T04:21:24.646Z,96657.16
2022-11-16T04:24:14.177Z,96655.80
2022-11-16T04:27:06.584Z,96651.31
2022-11-16T04:29:38.683Z,96650.02
2022-11-16T04:32:28.368Z,96648.27
2022-11-16T04:35:17.045Z,96644.51
2022-11-16T04:37:52.517Z,96637.61
2022-11-16T04:40:25.535Z,96637.16
2022-11-16T04:42:57.794Z,96633.84
2022-11-16T04:45:47.333Z,96631.38
2022-11-16T04:48:20.601Z,96629.04
2022-11-16T04:50:51.541Z,96620.01
2022-11-16T04:53:27.007Z,96621.71
2022-11-16T04:56:00.675Z,96623.91
2022-11-16T04:58:32.154Z,96619.39
2022-11-16T05:01:04.102Z,96614.29
2022-11-16T05:03:35.411Z,96612.18
2022-11-16T05:06:10.182Z,96611.21
2022-11-16T05:08:41.189Z,96611.85
2022-11-16T05:11:12.146Z,96611.07
2022-11-16T05:13:42.977Z,96611.13
2022-11-16T05:16:13.790Z,96604.33
2022-11-16T05:18:44.774Z,96601.83
2022-11-16T05:21:14.275Z,96597.91
2022-11-16T05:24:02.586Z,96597.37
2022-11-16T05:26:33.918Z,96591.08
2022-11-16T05:29:03.426Z,96592.48
2022-11-16T05:31:40.208Z,96592.64
2022-11-16T05:34:12.348Z,96587.91
2022-11-16T05:36:43.287Z,96582.48
2022-11-16T05:39:15.123Z,96583.83
2022-11-16T05:41:46.320Z,96582.02
2022-11-16T05:44:18.453Z,96580.88
2022-11-16T05:46:49.798Z,96579.52
2022-11-16T05:49:19.101Z,96576.52
2022-11-16T05:51:50.499Z,96578.55
2022-11-16T05:54:24.770Z,96579.02
2022-11-16T05:56:56.238Z,96582.08
2022-11-16T05:59:27.811Z,96584.76
2022-11-16T06:01:58.974Z,96586.92
2022-11-16T06:04:30.458Z,96589.36
2022-11-16T06:07:01.728Z,96592.85
2022-11-16T06:09:33.052Z,96594.27
2022-11-16T06:12:04.607Z,96592.79
2022-11-16T06:14:35.962Z,96591.59
2022-11-16T06:17:07.207Z,96593.21
2022-11-16T06:19:38.705Z,96599.33
2022-11-16T06:22:09.791Z,96598.81
2022-11-16T06:24:41.314Z,96605.73
2022-11-16T06:27:12.396Z,96605.70
2022-11-16T06:29:43.332Z,96606.23
2022-11-16T06:32:14.743Z,96613.29
2022-11-16T06:34:45.602Z,96613.11
2022-11-16T06:37:16.579Z,96611.09
2022-11-16T06:39:46.104Z,96609.49
2022-11-16T06:42:16.980Z,96613.62
2022-11-16T06:44:46.464Z,96617.14
2022-11-16T06:47:17.824Z,96622.59
2022-11-16T06:49:48.698Z,96629.42
2022-11-16T06:52:19.741Z,96624.09
2022-11-16T06:54:50.687Z,96626.71
2022-11-16T06:57:21.744Z,96621.98
2022-11-16T06:59:52.644Z,96618.44
2022-11-16T07:02:23.867Z,96618.67
2022-11-16T07:04:58.064Z,96616.09
2022-11-16T07:07:33.732Z,96617.31
2022-11-16T07:10:05.423Z,96621.59
2022-11-16T07:12:36.495Z,96618.44
2022-11-16T07:15:10.040Z,96619.75
2022-11-16T07:17:42.617Z,96617.62
2022-11-16T07:20:13.742Z,96622.41
2022-11-16T07:22:47.106Z,96621.41
2022-11-16T07:25:18.143Z,96621.73
2022-11-16T07:27:47.584Z,96619.23
2022-11-16T07:30:19.705Z,96613.44
2022-11-16T07:32:50.691Z,96612.63
2022-11-16T07:35:20.373Z,96610.06
2022-11-16T07:37:51.226Z,96612.02
2022-11-16T07:40:22.336Z,96607.71
2022-11-16T07:42:54.526Z,96604.10
2022-11-16T07:45:25.954Z,96605.82
2022-11-16T07:47:57.745Z,96606.36
2022-11-16T07:50:28.862Z,96606.39
2022-11-16T07:53:00.023Z,96603.77
2022-11-16T07:55:32.019Z,96606.66
2022-11-16T07:58:03.505Z,96607.17
2022-11-16T08:00:34.330Z,96607.20
2022-11-16T08:03:06.679Z,96606.88
2022-11-16T08:05:37.567Z,96606.98
2022-11-16T08:08:09.179Z,96609.75
2022-11-16T08:10:40.455Z,96606.20
2022-11-16T08:13:11.512Z,96611.54
2022-11-16T08:15:42.332Z,96609.21
2022-11-16T08:18:11.750Z,96610.98
2022-11-16T08:20:42.643Z,96611.11
2022-11-16T08:23:13.885Z,96613.86
2022-11-16T08:25:43.440Z,96615.41
2022-11-16T08:28:14.644Z,96611.26
2022-11-16T08:30:50.979Z,96610.41
2022-11-16T08:33:24.753Z,96611.21
2022-11-16T08:35:55.122Z,96608.74
2022-11-16T08:38:26.069Z,96609.35
2022-11-16T08:40:56.758Z,96605.66
2022-11-16T08:43:29.393Z,96602.90
2022-11-16T08:46:00.527Z,96601.94
2022-11-16T08:48:32.054Z,96602.79
2022-11-16T08:51:22.520Z,96605.14
2022-11-16T08:53:58.121Z,96612.05
2022-11-16T08:56:30.278Z,96611.36
2022-11-16T08:59:01.572Z,96608.91
2022-11-16T09:01:33.598Z,96609.45
2022-11-16T09:04:04.794Z,96606.42
2022-11-16T09:06:36.898Z,96601.06
2022-11-16T09:09:08.120Z,96600.63
2022-11-16T09:11:39.289Z,96596.97
2022-11-16T09:14:08.676Z,96595.52
2022-11-16T09:16:40.481Z,96598.71
2022-11-16T09:19:11.980Z,96595.36
2022-11-16T09:21:44.511Z,96597.05
2022-11-16T09:24:15.496Z,96596.05
2022-11-16T09:26:46.942Z,96591.81
2022-11-16T09:29:16.965Z,96590.19
2022-11-16T09:31:47.689Z,96587.78
2022-11-16T09:34:18.621Z,96585.18
2022-11-16T09:36:49.885Z,96584.27
2022-11-16T09:39:36.323Z,96588.77
2022-11-16T09:42:28.630Z,96589.04
2022-11-16T09:45:07.786Z,96584.17
2022-11-16T09:47:50.239Z,96575.50
2022-11-16T09:50:33.298Z,96575.02
2022-11-16T09:53:13.755Z,96563.96
2022-11-16T09:55:51.392Z,96562.32
2022-11-16T09:58:27.199Z,96562.23
2022-11-16T10:01:01.547Z,96566.09
2022-11-16T10:03:43.649Z,96558.37
2022-11-16T10:06:23.292Z,96558.98
2022-11-16T10:08:57.185Z,96558.59
2022-11-16T10:11:42.557Z,96557.48
2022-11-16T10:14:35.717Z,96551.11
2022-11-16T10:17:13.275Z,96545.23
2022-11-16T10:19:54.266Z,96546.44
2022-11-16T10:22:40.022Z,96536.20
2022-11-16T10:25:19.526Z,96530.20
2022-11-16T10:28:02.197Z,96534.53
2022-11-16T10:30:40.437Z,96535.07
2022-11-16T10:33:17.036Z,96531.16
2022-11-16T10:35:53.606Z,96527.61
2022-11-16T10:38:26.211Z,96520.70
2022-11-16T10:41:02.390Z,96513.77
2022-11-16T10:43:35.280Z,96508.81
2022-11-16T10:46:18.518Z,96504.71
2022-11-16T10:49:00.067Z,96499.31
2022-11-16T10:51:30.937Z,96498.27
2022-11-16T10:54:02.107Z,96498.89
2022-11-16T10:56:37.660Z,96495.25
2022-11-16T10:59:10.962Z,96494.21
2022-11-16T11:01:44.032Z,96491.95
2022-11-16T11:04:22.099Z,96489.91
2022-11-16T11:06:54.896Z,96490.56
2022-11-16T11:09:32.305Z,96489.52
2022-11-16T11:12:32.330Z,96492.23
2022-11-16T11:15:06.906Z,96497.41
2022-11-16T11:17:39.398Z,96499.55
2022-11-16T11:20:24.999Z,96498.21
2022-11-16T11:22:59.738Z,96495.36
2022-11-16T11:25:34.267Z,96492.39
2022-11-16T11:28:19.579Z,96488.11
2022-11-16T11:30:58.748Z,96492.44
2022-11-16T11:33:34.140Z,96494.29
2022-11-16T11:36:09.631Z,96494.54
2022-11-16T11:38:58.826Z,96494.02
2022-11-16T11:41:35.311Z,96493.79
2022-11-16T11:44:08.114Z,96493.84
2022-11-16T11:49:42.293Z,96488.96
2022-11-16T11:52:20.751Z,96491.89
2022-11-16T11:54:56.076Z,96491.41
2022-11-16T11:57:27.155Z,96489.13
2022-11-16T11:59:58.275Z,96487.31
2022-11-16T12:02:49.259Z,96487.55
2022-11-16T12:05:42.038Z,96487.17
2022-11-16T12:08:30.201Z,96489.44
2022-11-16T12:11:08.648Z,96489.00
2022-11-16T12:14:00.901Z,96487.45
2022-11-16T12:16:40.300Z,96482.41
2022-11-16T12:19:32.271Z,96484.26
2022-11-16T12:22:13.897Z,96485.39
2022-11-16T12:24:58.004Z,96478.14
2022-11-16T12:27:41.305Z,96476.69
2022-11-16T12:30:15.404Z,96473.59
2022-11-16T12:33:13.294Z,96470.90
2022-11-16T12:35:50.299Z,96473.09
2022-11-16T12:38:53.838Z,96469.84
2022-11-16T12:41:42.756Z,96467.68
2022-11-16T12:44:20.660Z,96463.11
2022-11-16T12:47:00.279Z,96460.80
2022-11-16T12:50:07.111Z,96466.58
2022-11-16T12:52:56.398Z,96464.73
2022-11-16T12:55:37.372Z,96464.21
2022-11-16T12:58:19.922Z,96460.56
2022-11-16T13:01:03.723Z,96461.21
2022-11-16T13:03:42.717Z,96459.05
2022-11-16T13:06:18.918Z,96455.20
2022-11-16T13:08:56.515Z,96450.38
2022-11-16T13:11:28.347Z,96447.90
2022-11-16T13:14:02.150Z,96444.39
2022-11-16T13:16:33.717Z,96443.56
2022-11-16T13:19:08.566Z,96440.23
2022-11-16T13:21:47.158Z,96437.45
2022-11-16T13:24:30.717Z,96437.97
2022-11-16T13:27:16.286Z,96433.26
2022-11-16T13:29:53.989Z,96433.95
2022-11-16T13:32:34.880Z,96430.35
2022-11-16T13:35:08.150Z,96429.23
2022-11-16T13:37:47.795Z,96427.63
2022-11-16T13:40:28.582Z,96424.11
2022-11-16T13:43:06.687Z,96431.02
2022-11-16T13:45:41.372Z,96428.55
2022-11-16T13:48:21.263Z,96430.38
2022-11-16T13:50:56.301Z,96428.91
2022-11-16T13:56:28.932Z,96426.52
2022-11-16T13:59:00.964Z,96430.65
2022-11-16T14:01:59.618Z,96429.65
2022-11-16T14:04:41.312Z,96431.33
2022-11-16T14:07:35.945Z,96432.70
2022-11-16T14:10:08.606Z,96431.09
2022-11-16T14:12:59.676Z,96430.48
2022-11-16T14:15:38.801Z,96427.58
2022-11-16T14:18:37.010Z,96423.48
2022-11-16T14:21:24.674Z,96427.75
2022-11-16T14:24:08.309Z,96424.85
2022-11-16T14:26:51.400Z,96420.39
2022-11-16T14:29:49.190Z,96415.70
2022-11-16T14:32:27.094Z,96410.75
2022-11-16T14:35:00.520Z,96405.78
2022-11-16T14:37:35.679Z,96400.92
2022-11-16T14:40:15.247Z,96402.12
2022-11-16T14:43:15.482Z,96400.01
2022-11-16T14:45:53.332Z,96394.52
2022-11-16T14:48:26.970Z,96390.03
2022-11-16T14:51:09.553Z,96389.01
2022-11-16T14:53:49.445Z,96381.99
2022-11-16T14:56:21.541Z,96382.18
2022-11-16T14:58:56.122Z,96378.22
2022-11-16T15:01:31.313Z,96381.83
2022-11-16T15:04:05.446Z,96373.61
2022-11-16T15:06:42.358Z,96371.52
2022-11-16T15:09:21.005Z,96371.68
2022-11-16T15:12:11.212Z,96375.38
2022-11-16T15:14:47.692Z,96376.45
2022-11-16T15:17:22.306Z,96379.89
2022-11-16T15:20:00.700Z,96378.67
2022-11-16T15:22:33.361Z,96377.23
2022-11-16T15:25:04.488Z,96369.72
2022-11-16T15:27:40.315Z,96370.66
2022-11-16T15:30:20.383Z,96368.41
2022-11-16T15:32:53.491Z,96368.29
2022-11-16T15:35:26.867Z,96366.45
2022-11-16T15:38:15.022Z,96368.65
2022-11-16T15:40:49.098Z,96365.38
2022-11-16T15:43:22.592Z,96363.20
2022-11-16T15:45:54.318Z,96360.77
2022-11-16T15:48:26.793Z,96360.27
2022-11-16T15:51:13.845Z,96360.46
2022-11-16T15:53:46.616Z,96359.92
2022-11-16T15:56:21.338Z,96359.88
2022-11-16T15:58:53.600Z,96363.83
2022-11-16T16:01:26.098Z,96366.14
2022-11-16T16:04:03.071Z,96365.84
2022-11-16T16:06:50.021Z,96367.83
2022-11-16T16:09:32.224Z,96369.58
2022-11-16T16:12:19.504Z,96372.38
2022-11-16T16:14:51.271Z,96371.77
2022-11-16T16:17:27.123Z,96365.88
2022-11-16T16:20:00.031Z,96366.19
2022-11-16T16:22:33.160Z,96364.96
2022-11-16T16:25:05.082Z,96362.98
2022-11-16T16:27:41.720Z,96361.42
2022-11-16T16:30:18.338Z,96367.66
2022-11-16T16:32:51.771Z,96360.66
2022-11-16T16:35:24.848Z,96362.60
2022-11-16T16:38:00.904Z,96362.00
2022-11-16T16:40:32.306Z,96365.44
2022-11-16T16:43:03.393Z,96361.91
2022-11-16T16:45:36.145Z,96364.71
2022-11-16T16:48:08.286Z,96362.14
2022-11-16T16:50:39.798Z,96364.98
2022-11-16T16:53:13.447Z,96365.67
2022-11-16T16:55:46.180Z,96364.34
2022-11-16T16:58:17.366Z,96363.67
2022-11-16T17:00:49.090Z,96361.61
2022-11-16T17:03:20.078Z,96360.50
2022-11-16T17:05:53.313Z,96359.35
2022-11-16T17:08:24.223Z,96357.73
2022-11-16T17:10:55.166Z,96355.29
2022-11-16T17:13:24.654Z,96356.77
2022-11-16T17:15:55.387Z,96355.44
2022-11-16T17:18:26.211Z,96352.91
2022-11-16T17:20:57.080Z,96354.48
2022-11-16T17:23:29.600Z,96351.59
2022-11-16T17:26:00.640Z,96349.31
2022-11-16T17:28:31.574Z,96347.61
2022-11-16T17:31:03.425Z,96349.90
2022-11-16T17:33:37.519Z,96348.72
2022-11-16T17:36:12.455Z,96351.23
2022-11-16T17:38:43.498Z,96352.54
2022-11-16T17:41:14.280Z,96351.92
2022-11-16T17:43:48.082Z,96351.30
2022-11-16T17:46:21.281Z,96352.64
2022-11-16T17:48:53.025Z,96350.41
2022-11-16T17:51:26.589Z,96348.27
2022-11-16T17:53:57.621Z,96348.10
2022-11-16T17:56:29.814Z,96347.90
2022-11-16T17:59:01.055Z,96346.41
2022-11-16T18:01:32.320Z,96346.63
2022-11-16T18:04:04.721Z,96347.86
2022-11-16T18:06:35.801Z,96346.40
2022-11-16T18:09:05.455Z,96348.33
2022-11-16T18:11:36.553Z,96350.91
2022-11-16T18:14:07.535Z,96346.35
2022-11-16T18:16:41.196Z,96347.61
2022-11-16T18:19:16.131Z,96346.08
2022-11-16T18:21:48.326Z,96343.05
2022-11-16T18:24:19.273Z,96342.31
2022-11-16T18:26:50.223Z,96341.84
2022-11-16T18:29:22.347Z,96338.86
2022-11-16T18:31:53.896Z,96337.84
2022-11-16T18:34:24.784Z,96336.34
2022-11-16T18:36:56.286Z,96338.11
2022-11-16T18:39:27.317Z,96335.88
2022-11-16T18:41:58.815Z,96338.44
2022-11-16T18:44:29.929Z,96333.86
2022-11-16T18:47:02.710Z,96332.02
2022-11-16T18:49:33.719Z,96332.64
2022-11-16T18:52:04.895Z,96330.13
2022-11-16T18:54:36.155Z,96327.90
2022-11-16T18:57:07.485Z,96324.18
2022-11-16T18:59:38.795Z,96319.73
2022-11-16T19:02:11.746Z,96318.72
2022-11-16T19:04:42.869Z,96322.08
2022-11-16T19:07:14.180Z,96326.58
2022-11-16T19:09:45.244Z,96328.34
2022-11-16T19:12:16.138Z,96325.30
2022-11-16T19:14:47.252Z,96323.29
2022-11-16T19:17:18.755Z,96325.89
2022-11-16T19:19:49.818Z,96321.74
2022-11-16T19:22:20.944Z,96324.17
2022-11-16T19:24:50.381Z,96325.13
2022-11-16T19:27:21.483Z,96330.88
2022-11-16T19:29:52.567Z,96331.73
2022-11-16T19:32:22.058Z,96334.34
2022-11-16T19:34:53.109Z,96336.98
2022-11-16T19:37:24.279Z,96332.52
2022-11-16T19:39:55.292Z,96333.32
2022-11-16T19:42:27.031Z,96334.30
2022-11-16T19:44:58.509Z,96337.36
2022-11-16T19:47:30.610Z,96335.98
2022-11-16T19:50:01.786Z,96338.73
2022-11-16T19:52:31.547Z,96336.04
2022-11-16T19:55:02.496Z,96334.19
2022-11-16T19:57:33.587Z,96331.10
2022-11-16T20:00:05.215Z,96331.90
2022-11-16T20:02:36.670Z,96333.91
2022-11-16T20:05:09.643Z,96334.11
2022-11-16T20:07:40.665Z,96335.59
2022-11-16T20:10:10.862Z,96335.46
2022-11-16T20:12:41.627Z,96340.06
2022-11-16T20:15:14.943Z,96342.69
2022-11-16T20:17:46.098Z,96346.84
2022-11-16T20:20:17.379Z,96344.95
2022-11-16T20:22:48.137Z,96349.28
2022-11-16T20:25:19.377Z,96342.64
2022-11-16T20:27:50.306Z,96341.19
2022-11-16T20:30:19.831Z,96341.24
2022-11-16T20:32:50.800Z,96341.41
2022-11-16T20:35:21.606Z,96340.43
2022-11-16T20:37:52.537Z,96340.20
2022-11-16T20:40:23.785Z,96340.53
2022-11-16T20:42:59.234Z,96343.06
2022-11-16T20:45:33.255Z,96339.60
2022-11-16T20:48:04.488Z,96337.74
2022-11-16T20:50:34.197Z,96336.47
2022-11-16T20:53:05.278Z,96331.91
2022-11-16T20:55:36.486Z,96330.00
2022-11-16T20:58:07.426Z,96331.12
2022-11-16T21:00:38.262Z,96326.36
2022-11-16T21:03:09.473Z,96321.80
2022-11-16T21:05:45.567Z,96323.98
2022-11-16T21:08:16.715Z,96329.18
2022-11-16T21:10:48.866Z,96329.70
2022-11-16T21:13:39.100Z,96333.41
2022-11-16T21:16:12.350Z,96331.67
2022-11-16T21:18:43.700Z,96330.32
2022-11-16T21:21:13.711Z,96327.89
2022-11-16T21:23:51.580Z,96326.85
2022-11-16T21:26:24.838Z,96327.20
2022-11-16T21:28:55.700Z,96323.45
2022-11-16T21:31:29.916Z,96328.38
2022-11-16T21:34:01.804Z,96328.07
2022-11-16T21:36:34.014Z,96328.48
2022-11-16T21:39:05.771Z,96327.57
2022-11-16T21:41:37.069Z,96325.52
2022-11-16T21:44:08.156Z,96326.51
2022-11-16T21:46:39.217Z,96325.89
2022-11-16T21:49:10.221Z,96327.21
2022-11-16T21:51:41.143Z,96328.65
2022-11-16T21:54:12.307Z,96322.61
2022-11-16T21:56:43.558Z,96325.30
2022-11-16T21:59:15.118Z,96327.26
2022-11-16T22:01:59.842Z,96331.48
2022-11-16T22:04:48.223Z,96333.35
2022-11-16T22:07:36.843Z,96334.59
2022-11-16T22:10:10.885Z,96337.99
2022-11-16T22:12:41.966Z,96340.98
2022-11-16T22:15:13.566Z,96339.98
2022-11-16T22:17:46.398Z,96343.89
2022-11-16T22:20:17.836Z,96342.02
2022-11-16T22:22:49.142Z,96343.75
2022-11-16T22:25:20.643Z,96338.89
2022-11-16T22:28:19.319Z,96338.45
2022-11-16T22:30:47.427Z,96331.89
2022-11-16T22:33:22.179Z,96328.91
2022-11-16T22:35:53.316Z,96331.00
2022-11-16T22:38:24.551Z,96326.54
2022-11-16T22:40:54.528Z,96327.46
2022-11-16T22:43:27.051Z,96326.30
2022-11-16T22:46:00.990Z,96325.30
2022-11-16T22:48:37.042Z,96331.73
2022-11-16T22:51:19.952Z,96324.88
2022-11-16T22:53:55.162Z,96326.27
2022-11-16T22:56:26.774Z,96334.88
2022-11-16T22:58:57.674Z,96332.79
2022-11-16T23:01:27.201Z,96335.42
2022-11-16T23:03:57.970Z,96335.23
2022-11-16T23:06:29.192Z,96335.63
2022-11-16T23:09:00.714Z,96337.81
2022-11-16T23:11:49.524Z,96329.52
2022-11-16T23:14:37.934Z,96320.42
2022-11-16T23:17:09.225Z,96317.70
2022-11-16T23:19:56.590Z,96320.02
2022-11-16T23:22:44.919Z,96323.08
2022-11-16T23:25:33.459Z,96323.34
2022-11-16T23:28:07.871Z,96324.80
2022-11-16T23:30:39.982Z,96314.35
2022-11-16T23:33:12.077Z,96312.36
2022-11-16T23:35:43.504Z,96310.20
2022-11-16T23:38:14.505Z,96301.98
2022-11-16T23:40:45.511Z,96301.48
2022-11-16T23:43:33.117Z,96288.67
2022-11-16T23:46:04.421Z,96295.59
2022-11-16T23:48:35.257Z,96290.41
2022-11-16T23:51:06.361Z,96287.34
2022-11-16T23:53:37.851Z,96282.68
2022-11-16T23:56:10.233Z,96283.41
2022-11-16T23:58:41.033Z,96280.32
